sensor_id;sensor_type;location;lat;lon;timestamp;temperature;humidity
6114;DHT22;3087;48.392;10.836;2023-06-19T00:02:06;23.80;71.20
6114;DHT22;3087;48.392;10.836;2023-06-19T00:04:31;23.70;70.20
6114;DHT22;3087;48.392;10.836;2023-06-19T00:06:57;23.60;70.50
6114;DHT22;3087;48.392;10.836;2023-06-19T00:09:23;23.50;70.70
6114;DHT22;3087;48.392;10.836;2023-06-19T00:11:48;23.30;70.90
6114;DHT22;3087;48.392;10.836;2023-06-19T00:14:14;23.30;72.10
6114;DHT22;3087;48.392;10.836;2023-06-19T00:16:39;23.20;71.40
6114;DHT22;3087;48.392;10.836;2023-06-19T00:19:05;23.20;70.90
6114;DHT22;3087;48.392;10.836;2023-06-19T00:21:31;23.20;71.00
6114;DHT22;3087;48.392;10.836;2023-06-19T00:23:57;23.20;71.30
6114;DHT22;3087;48.392;10.836;2023-06-19T00:26:22;23.20;71.40
6114;DHT22;3087;48.392;10.836;2023-06-19T00:28:50;23.20;71.00
6114;DHT22;3087;48.392;10.836;2023-06-19T00:31:15;23.10;71.00
6114;DHT22;3087;48.392;10.836;2023-06-19T00:33:42;23.10;71.30
6114;DHT22;3087;48.392;10.836;2023-06-19T00:36:12;23.00;71.80
6114;DHT22;3087;48.392;10.836;2023-06-19T00:38:41;22.90;71.70
6114;DHT22;3087;48.392;10.836;2023-06-19T00:41:08;22.90;72.00
6114;DHT22;3087;48.392;10.836;2023-06-19T00:43:34;22.60;71.00
6114;DHT22;3087;48.392;10.836;2023-06-19T00:46:00;22.90;71.30
6114;DHT22;3087;48.392;10.836;2023-06-19T00:48:27;22.90;71.20
6114;DHT22;3087;48.392;10.836;2023-06-19T00:50:54;22.90;70.90
6114;DHT22;3087;48.392;10.836;2023-06-19T00:53:21;22.90;71.00
6114;DHT22;3087;48.392;10.836;2023-06-19T00:55:48;22.90;70.80
6114;DHT22;3087;48.392;10.836;2023-06-19T00:58:14;22.90;70.80
6114;DHT22;3087;48.392;10.836;2023-06-19T01:00:40;22.90;70.70
6114;DHT22;3087;48.392;10.836;2023-06-19T01:03:06;22.80;70.80
6114;DHT22;3087;48.392;10.836;2023-06-19T01:05:33;22.80;71.30
6114;DHT22;3087;48.392;10.836;2023-06-19T01:08:05;22.70;71.70
6114;DHT22;3087;48.392;10.836;2023-06-19T01:10:54;22.60;71.90
6114;DHT22;3087;48.392;10.836;2023-06-19T01:13:37;22.60;72.10
6114;DHT22;3087;48.392;10.836;2023-06-19T01:16:04;22.60;72.00
6114;DHT22;3087;48.392;10.836;2023-06-19T01:18:31;22.60;72.50
6114;DHT22;3087;48.392;10.836;2023-06-19T01:21:08;22.50;73.00
6114;DHT22;3087;48.392;10.836;2023-06-19T01:23:34;22.30;73.60
6114;DHT22;3087;48.392;10.836;2023-06-19T01:26:00;22.10;74.10
6114;DHT22;3087;48.392;10.836;2023-06-19T01:28:25;22.00;74.30
6114;DHT22;3087;48.392;10.836;2023-06-19T01:30:52;22.00;74.80
6114;DHT22;3087;48.392;10.836;2023-06-19T01:33:24;21.90;74.90
6114;DHT22;3087;48.392;10.836;2023-06-19T01:35:52;21.90;75.00
6114;DHT22;3087;48.392;10.836;2023-06-19T01:38:19;21.90;75.00
6114;DHT22;3087;48.392;10.836;2023-06-19T01:40:46;21.90;75.10
6114;DHT22;3087;48.392;10.836;2023-06-19T01:43:13;21.90;75.20
6114;DHT22;3087;48.392;10.836;2023-06-19T01:45:40;21.90;75.10
6114;DHT22;3087;48.392;10.836;2023-06-19T01:48:05;21.90;75.30
6114;DHT22;3087;48.392;10.836;2023-06-19T01:50:31;21.90;75.50
6114;DHT22;3087;48.392;10.836;2023-06-19T01:52:56;21.90;75.70
6114;DHT22;3087;48.392;10.836;2023-06-19T01:55:22;21.90;75.70
6114;DHT22;3087;48.392;10.836;2023-06-19T01:57:48;21.90;76.00
6114;DHT22;3087;48.392;10.836;2023-06-19T02:00:14;21.90;76.20
6114;DHT22;3087;48.392;10.836;2023-06-19T02:02:40;21.90;76.20
6114;DHT22;3087;48.392;10.836;2023-06-19T02:05:05;21.90;76.40
6114;DHT22;3087;48.392;10.836;2023-06-19T02:07:31;21.90;76.70
6114;DHT22;3087;48.392;10.836;2023-06-19T02:09:57;21.80;76.80
6114;DHT22;3087;48.392;10.836;2023-06-19T02:12:23;21.90;77.00
6114;DHT22;3087;48.392;10.836;2023-06-19T02:14:48;21.80;76.80
6114;DHT22;3087;48.392;10.836;2023-06-19T02:17:14;21.80;77.20
6114;DHT22;3087;48.392;10.836;2023-06-19T02:19:40;21.90;76.90
6114;DHT22;3087;48.392;10.836;2023-06-19T02:22:06;21.90;77.30
6114;DHT22;3087;48.392;10.836;2023-06-19T02:24:32;21.90;77.40
6114;DHT22;3087;48.392;10.836;2023-06-19T02:26:57;21.80;77.60
6114;DHT22;3087;48.392;10.836;2023-06-19T02:29:24;21.80;78.00
6114;DHT22;3087;48.392;10.836;2023-06-19T02:31:50;21.70;78.20
6114;DHT22;3087;48.392;10.836;2023-06-19T02:34:16;21.70;78.30
6114;DHT22;3087;48.392;10.836;2023-06-19T02:36:42;21.70;78.50
6114;DHT22;3087;48.392;10.836;2023-06-19T02:39:08;21.60;78.80
6114;DHT22;3087;48.392;10.836;2023-06-19T02:41:34;21.60;78.50
6114;DHT22;3087;48.392;10.836;2023-06-19T02:44:00;21.60;78.60
6114;DHT22;3087;48.392;10.836;2023-06-19T02:46:25;21.60;79.00
6114;DHT22;3087;48.392;10.836;2023-06-19T02:48:51;21.50;79.20
6114;DHT22;3087;48.392;10.836;2023-06-19T02:51:17;21.40;79.50
6114;DHT22;3087;48.392;10.836;2023-06-19T02:53:42;21.30;79.60
6114;DHT22;3087;48.392;10.836;2023-06-19T02:56:09;21.30;79.80
6114;DHT22;3087;48.392;10.836;2023-06-19T02:58:35;21.20;80.10
6114;DHT22;3087;48.392;10.836;2023-06-19T03:01:03;21.20;80.30
6114;DHT22;3087;48.392;10.836;2023-06-19T03:03:29;21.30;80.10
6114;DHT22;3087;48.392;10.836;2023-06-19T03:05:56;21.30;81.10
6114;DHT22;3087;48.392;10.836;2023-06-19T03:08:21;21.30;80.70
6114;DHT22;3087;48.392;10.836;2023-06-19T03:10:47;21.30;80.30
6114;DHT22;3087;48.392;10.836;2023-06-19T03:13:13;21.40;79.70
6114;DHT22;3087;48.392;10.836;2023-06-19T03:15:39;21.60;80.30
6114;DHT22;3087;48.392;10.836;2023-06-19T03:18:05;21.60;79.80
6114;DHT22;3087;48.392;10.836;2023-06-19T03:20:32;21.60;79.90
6114;DHT22;3087;48.392;10.836;2023-06-19T03:22:58;21.60;79.60
6114;DHT22;3087;48.392;10.836;2023-06-19T03:25:23;21.70;79.30
6114;DHT22;3087;48.392;10.836;2023-06-19T03:27:49;21.90;79.10
6114;DHT22;3087;48.392;10.836;2023-06-19T03:30:15;22.00;78.40
6114;DHT22;3087;48.392;10.836;2023-06-19T03:32:43;22.10;78.10
6114;DHT22;3087;48.392;10.836;2023-06-19T03:35:09;22.10;78.70
6114;DHT22;3087;48.392;10.836;2023-06-19T03:37:35;22.00;79.00
6114;DHT22;3087;48.392;10.836;2023-06-19T03:40:01;22.00;79.00
6114;DHT22;3087;48.392;10.836;2023-06-19T03:42:28;22.00;79.10
6114;DHT22;3087;48.392;10.836;2023-06-19T03:44:54;22.10;78.80
6114;DHT22;3087;48.392;10.836;2023-06-19T03:47:20;22.20;78.30
6114;DHT22;3087;48.392;10.836;2023-06-19T03:49:46;22.40;78.40
6114;DHT22;3087;48.392;10.836;2023-06-19T03:52:13;22.50;78.60
6114;DHT22;3087;48.392;10.836;2023-06-19T03:54:39;22.60;78.60
6114;DHT22;3087;48.392;10.836;2023-06-19T03:57:05;22.70;78.50
6114;DHT22;3087;48.392;10.836;2023-06-19T03:59:31;22.60;78.50
6114;DHT22;3087;48.392;10.836;2023-06-19T04:01:57;22.60;78.40
6114;DHT22;3087;48.392;10.836;2023-06-19T04:04:22;22.70;78.80
6114;DHT22;3087;48.392;10.836;2023-06-19T04:06:48;22.70;79.10
6114;DHT22;3087;48.392;10.836;2023-06-19T04:09:13;22.70;79.00
6114;DHT22;3087;48.392;10.836;2023-06-19T04:11:39;22.50;79.30
6114;DHT22;3087;48.392;10.836;2023-06-19T04:14:05;22.40;79.30
6114;DHT22;3087;48.392;10.836;2023-06-19T04:16:30;22.50;79.40
6114;DHT22;3087;48.392;10.836;2023-06-19T04:18:56;22.60;79.60
6114;DHT22;3087;48.392;10.836;2023-06-19T04:21:21;22.60;79.50
6114;DHT22;3087;48.392;10.836;2023-06-19T04:23:47;22.70;79.90
6114;DHT22;3087;48.392;10.836;2023-06-19T04:26:12;22.70;79.70
6114;DHT22;3087;48.392;10.836;2023-06-19T04:28:38;22.70;79.60
6114;DHT22;3087;48.392;10.836;2023-06-19T04:31:04;22.70;79.60
6114;DHT22;3087;48.392;10.836;2023-06-19T04:33:30;22.70;79.90
6114;DHT22;3087;48.392;10.836;2023-06-19T04:35:56;22.80;80.20
6114;DHT22;3087;48.392;10.836;2023-06-19T04:38:22;22.90;80.30
6114;DHT22;3087;48.392;10.836;2023-06-19T04:40:51;22.90;80.00
6114;DHT22;3087;48.392;10.836;2023-06-19T04:43:17;22.90;80.20
6114;DHT22;3087;48.392;10.836;2023-06-19T04:45:43;22.90;80.30
6114;DHT22;3087;48.392;10.836;2023-06-19T04:48:09;22.90;80.40
6114;DHT22;3087;48.392;10.836;2023-06-19T04:50:35;22.90;80.50
6114;DHT22;3087;48.392;10.836;2023-06-19T04:53:01;22.90;80.40
6114;DHT22;3087;48.392;10.836;2023-06-19T04:55:26;22.80;80.30
6114;DHT22;3087;48.392;10.836;2023-06-19T04:57:52;22.90;80.60
6114;DHT22;3087;48.392;10.836;2023-06-19T05:00:18;22.90;80.70
6114;DHT22;3087;48.392;10.836;2023-06-19T05:02:45;23.00;80.40
6114;DHT22;3087;48.392;10.836;2023-06-19T05:05:13;23.10;80.50
6114;DHT22;3087;48.392;10.836;2023-06-19T05:07:38;23.10;80.50
6114;DHT22;3087;48.392;10.836;2023-06-19T05:10:04;23.20;80.50
6114;DHT22;3087;48.392;10.836;2023-06-19T05:12:30;23.10;80.60
6114;DHT22;3087;48.392;10.836;2023-06-19T05:14:56;23.20;80.70
6114;DHT22;3087;48.392;10.836;2023-06-19T05:17:21;23.20;80.90
6114;DHT22;3087;48.392;10.836;2023-06-19T05:19:47;23.30;80.80
6114;DHT22;3087;48.392;10.836;2023-06-19T05:22:13;23.30;80.70
6114;DHT22;3087;48.392;10.836;2023-06-19T05:24:39;23.20;81.30
6114;DHT22;3087;48.392;10.836;2023-06-19T05:27:05;23.20;81.30
6114;DHT22;3087;48.392;10.836;2023-06-19T05:29:31;23.20;81.90
6114;DHT22;3087;48.392;10.836;2023-06-19T05:31:57;23.30;82.00
6114;DHT22;3087;48.392;10.836;2023-06-19T05:34:23;23.20;82.30
6114;DHT22;3087;48.392;10.836;2023-06-19T05:36:48;23.20;82.40
6114;DHT22;3087;48.392;10.836;2023-06-19T05:39:14;23.10;82.90
6114;DHT22;3087;48.392;10.836;2023-06-19T05:41:40;23.10;82.80
6114;DHT22;3087;48.392;10.836;2023-06-19T05:44:06;23.10;82.90
6114;DHT22;3087;48.392;10.836;2023-06-19T05:46:32;23.20;83.00
6114;DHT22;3087;48.392;10.836;2023-06-19T05:48:58;23.40;82.90
6114;DHT22;3087;48.392;10.836;2023-06-19T05:51:23;23.50;83.10
6114;DHT22;3087;48.392;10.836;2023-06-19T05:53:49;23.70;82.60
6114;DHT22;3087;48.392;10.836;2023-06-19T05:56:15;23.90;82.10
6114;DHT22;3087;48.392;10.836;2023-06-19T05:58:41;24.20;82.00
6114;DHT22;3087;48.392;10.836;2023-06-19T06:01:07;24.40;81.70
6114;DHT22;3087;48.392;10.836;2023-06-19T06:03:33;24.40;81.50
6114;DHT22;3087;48.392;10.836;2023-06-19T06:05:58;24.40;81.90
6114;DHT22;3087;48.392;10.836;2023-06-19T06:08:31;24.30;81.90
6114;DHT22;3087;48.392;10.836;2023-06-19T06:10:57;24.30;82.10
6114;DHT22;3087;48.392;10.836;2023-06-19T06:13:22;24.40;82.10
6114;DHT22;3087;48.392;10.836;2023-06-19T06:15:48;24.60;81.70
6114;DHT22;3087;48.392;10.836;2023-06-19T06:18:14;24.60;81.50
6114;DHT22;3087;48.392;10.836;2023-06-19T06:20:39;24.60;81.70
6114;DHT22;3087;48.392;10.836;2023-06-19T06:23:05;24.70;81.40
6114;DHT22;3087;48.392;10.836;2023-06-19T06:25:31;24.70;81.50
6114;DHT22;3087;48.392;10.836;2023-06-19T06:27:56;24.70;81.70
6114;DHT22;3087;48.392;10.836;2023-06-19T06:30:22;24.70;81.50
6114;DHT22;3087;48.392;10.836;2023-06-19T06:32:49;24.70;82.10
6114;DHT22;3087;48.392;10.836;2023-06-19T06:35:15;24.70;82.40
6114;DHT22;3087;48.392;10.836;2023-06-19T06:37:41;24.80;82.60
6114;DHT22;3087;48.392;10.836;2023-06-19T06:40:07;24.80;82.50
6114;DHT22;3087;48.392;10.836;2023-06-19T06:42:37;24.80;82.40
6114;DHT22;3087;48.392;10.836;2023-06-19T06:45:04;24.80;82.70
6114;DHT22;3087;48.392;10.836;2023-06-19T06:47:30;24.70;82.80
6114;DHT22;3087;48.392;10.836;2023-06-19T06:49:56;24.80;83.00
6114;DHT22;3087;48.392;10.836;2023-06-19T06:52:21;24.80;83.00
6114;DHT22;3087;48.392;10.836;2023-06-19T06:54:47;24.90;83.00
6114;DHT22;3087;48.392;10.836;2023-06-19T06:57:13;25.00;83.20
6114;DHT22;3087;48.392;10.836;2023-06-19T06:59:38;25.00;83.20
6114;DHT22;3087;48.392;10.836;2023-06-19T07:02:04;25.00;83.60
6114;DHT22;3087;48.392;10.836;2023-06-19T07:04:30;24.90;83.70
6114;DHT22;3087;48.392;10.836;2023-06-19T07:06:57;25.00;84.00
6114;DHT22;3087;48.392;10.836;2023-06-19T07:09:23;25.10;84.00
6114;DHT22;3087;48.392;10.836;2023-06-19T07:11:49;25.20;83.90
6114;DHT22;3087;48.392;10.836;2023-06-19T07:14:17;25.20;83.70
6114;DHT22;3087;48.392;10.836;2023-06-19T07:16:44;25.30;83.80
6114;DHT22;3087;48.392;10.836;2023-06-19T07:19:13;25.40;82.80
6114;DHT22;3087;48.392;10.836;2023-06-19T07:21:39;25.30;82.00
6114;DHT22;3087;48.392;10.836;2023-06-19T07:24:05;25.40;82.10
6114;DHT22;3087;48.392;10.836;2023-06-19T07:26:31;25.30;82.20
6114;DHT22;3087;48.392;10.836;2023-06-19T07:28:57;25.30;82.50
6114;DHT22;3087;48.392;10.836;2023-06-19T07:31:23;25.40;83.00
6114;DHT22;3087;48.392;10.836;2023-06-19T07:33:49;25.40;83.00
6114;DHT22;3087;48.392;10.836;2023-06-19T07:36:14;25.30;83.10
6114;DHT22;3087;48.392;10.836;2023-06-19T07:38:42;25.30;82.50
6114;DHT22;3087;48.392;10.836;2023-06-19T07:41:21;25.30;82.40
6114;DHT22;3087;48.392;10.836;2023-06-19T07:43:47;25.40;82.60
6114;DHT22;3087;48.392;10.836;2023-06-19T07:46:13;25.40;82.60
6114;DHT22;3087;48.392;10.836;2023-06-19T07:48:40;25.40;82.30
6114;DHT22;3087;48.392;10.836;2023-06-19T07:51:07;25.50;82.20
6114;DHT22;3087;48.392;10.836;2023-06-19T07:53:32;25.50;82.20
6114;DHT22;3087;48.392;10.836;2023-06-19T07:55:58;25.50;82.20
6114;DHT22;3087;48.392;10.836;2023-06-19T07:58:23;25.50;82.60
6114;DHT22;3087;48.392;10.836;2023-06-19T08:00:49;25.40;82.50
6114;DHT22;3087;48.392;10.836;2023-06-19T08:03:15;25.30;82.90
6114;DHT22;3087;48.392;10.836;2023-06-19T08:05:40;25.30;82.80
6114;DHT22;3087;48.392;10.836;2023-06-19T08:08:07;25.20;82.90
6114;DHT22;3087;48.392;10.836;2023-06-19T08:10:33;25.20;82.70
6114;DHT22;3087;48.392;10.836;2023-06-19T08:12:58;25.40;82.70
6114;DHT22;3087;48.392;10.836;2023-06-19T08:15:24;25.50;82.60
6114;DHT22;3087;48.392;10.836;2023-06-19T08:17:49;25.50;82.70
6114;DHT22;3087;48.392;10.836;2023-06-19T08:20:15;25.70;82.70
6114;DHT22;3087;48.392;10.836;2023-06-19T08:22:41;25.90;82.70
6114;DHT22;3087;48.392;10.836;2023-06-19T08:25:07;26.10;82.60
6114;DHT22;3087;48.392;10.836;2023-06-19T08:27:33;26.30;82.40
6114;DHT22;3087;48.392;10.836;2023-06-19T08:29:58;26.40;82.50
6114;DHT22;3087;48.392;10.836;2023-06-19T08:32:24;26.30;82.30
6114;DHT22;3087;48.392;10.836;2023-06-19T08:34:50;26.30;82.40
6114;DHT22;3087;48.392;10.836;2023-06-19T08:37:17;26.20;82.40
6114;DHT22;3087;48.392;10.836;2023-06-19T08:39:43;26.40;82.70
6114;DHT22;3087;48.392;10.836;2023-06-19T08:42:09;26.70;82.10
6114;DHT22;3087;48.392;10.836;2023-06-19T08:44:35;26.70;81.90
6114;DHT22;3087;48.392;10.836;2023-06-19T08:47:04;26.70;82.40
6114;DHT22;3087;48.392;10.836;2023-06-19T08:49:34;26.70;82.40
6114;DHT22;3087;48.392;10.836;2023-06-19T08:52:01;27.00;82.10
6114;DHT22;3087;48.392;10.836;2023-06-19T08:54:27;27.10;81.80
6114;DHT22;3087;48.392;10.836;2023-06-19T08:56:53;27.30;82.00
6114;DHT22;3087;48.392;10.836;2023-06-19T08:59:20;27.30;81.50
6114;DHT22;3087;48.392;10.836;2023-06-19T09:01:50;27.50;81.70
6114;DHT22;3087;48.392;10.836;2023-06-19T09:04:18;27.70;81.60
6114;DHT22;3087;48.392;10.836;2023-06-19T09:07:07;27.80;81.30
6114;DHT22;3087;48.392;10.836;2023-06-19T09:09:32;27.80;80.90
6114;DHT22;3087;48.392;10.836;2023-06-19T09:11:59;27.90;80.90
6114;DHT22;3087;48.392;10.836;2023-06-19T09:14:36;28.00;80.50
6114;DHT22;3087;48.392;10.836;2023-06-19T09:17:03;28.20;80.60
6114;DHT22;3087;48.392;10.836;2023-06-19T09:19:30;28.20;80.70
6114;DHT22;3087;48.392;10.836;2023-06-19T09:24:40;28.60;80.40
6114;DHT22;3087;48.392;10.836;2023-06-19T09:27:11;28.40;80.50
6114;DHT22;3087;48.392;10.836;2023-06-19T09:29:43;28.30;80.90
6114;DHT22;3087;48.392;10.836;2023-06-19T09:32:16;28.50;81.00
6114;DHT22;3087;48.392;10.836;2023-06-19T09:34:42;28.70;80.60
6114;DHT22;3087;48.392;10.836;2023-06-19T09:37:08;28.70;80.60
6114;DHT22;3087;48.392;10.836;2023-06-19T09:39:37;28.60;80.20
6114;DHT22;3087;48.392;10.836;2023-06-19T09:42:03;28.40;80.70
6114;DHT22;3087;48.392;10.836;2023-06-19T09:44:39;28.20;80.80
6114;DHT22;3087;48.392;10.836;2023-06-19T09:47:29;28.00;81.10
6114;DHT22;3087;48.392;10.836;2023-06-19T09:49:56;27.70;81.70
6114;DHT22;3087;48.392;10.836;2023-06-19T09:52:23;27.60;81.80
6114;DHT22;3087;48.392;10.836;2023-06-19T09:54:53;27.70;82.30
6114;DHT22;3087;48.392;10.836;2023-06-19T09:57:19;27.90;81.80
6114;DHT22;3087;48.392;10.836;2023-06-19T09:59:52;28.30;81.20
6114;DHT22;3087;48.392;10.836;2023-06-19T10:02:19;28.30;80.30
6114;DHT22;3087;48.392;10.836;2023-06-19T10:04:55;28.00;80.80
6114;DHT22;3087;48.392;10.836;2023-06-19T10:07:33;28.00;81.20
6114;DHT22;3087;48.392;10.836;2023-06-19T10:10:00;28.20;81.40
6114;DHT22;3087;48.392;10.836;2023-06-19T10:12:45;28.10;81.10
6114;DHT22;3087;48.392;10.836;2023-06-19T10:15:22;27.90;81.00
6114;DHT22;3087;48.392;10.836;2023-06-19T10:18:02;28.00;81.50
6114;DHT22;3087;48.392;10.836;2023-06-19T10:23:07;29.40;79.80
6114;DHT22;3087;48.392;10.836;2023-06-19T10:25:41;30.00;79.30
6114;DHT22;3087;48.392;10.836;2023-06-19T10:28:30;30.60;77.80
6114;DHT22;3087;48.392;10.836;2023-06-19T10:31:04;31.70;77.60
6114;DHT22;3087;48.392;10.836;2023-06-19T10:33:34;32.60;74.10
6114;DHT22;3087;48.392;10.836;2023-06-19T10:36:20;33.30;73.00
6114;DHT22;3087;48.392;10.836;2023-06-19T10:38:47;32.60;71.70
6114;DHT22;3087;48.392;10.836;2023-06-19T10:43:53;30.80;74.50
6114;DHT22;3087;48.392;10.836;2023-06-19T10:46:20;29.20;74.60
6114;DHT22;3087;48.392;10.836;2023-06-19T10:48:46;29.90;75.60
6114;DHT22;3087;48.392;10.836;2023-06-19T10:51:12;29.70;75.00
6114;DHT22;3087;48.392;10.836;2023-06-19T10:53:43;29.60;75.20
6114;DHT22;3087;48.392;10.836;2023-06-19T10:56:08;29.50;73.20
6114;DHT22;3087;48.392;10.836;2023-06-19T10:58:34;28.90;73.00
6114;DHT22;3087;48.392;10.836;2023-06-19T11:01:00;29.90;73.30
6114;DHT22;3087;48.392;10.836;2023-06-19T11:03:25;30.10;73.70
6114;DHT22;3087;48.392;10.836;2023-06-19T11:05:51;30.10;72.80
6114;DHT22;3087;48.392;10.836;2023-06-19T11:08:20;30.10;73.40
6114;DHT22;3087;48.392;10.836;2023-06-19T11:10:46;30.20;73.10
6114;DHT22;3087;48.392;10.836;2023-06-19T11:13:16;30.30;74.30
6114;DHT22;3087;48.392;10.836;2023-06-19T11:15:42;30.60;72.60
6114;DHT22;3087;48.392;10.836;2023-06-19T11:18:08;31.40;72.80
6114;DHT22;3087;48.392;10.836;2023-06-19T11:20:47;32.00;71.80
6114;DHT22;3087;48.392;10.836;2023-06-19T11:23:14;33.10;71.10
6114;DHT22;3087;48.392;10.836;2023-06-19T11:25:41;33.30;69.80
6114;DHT22;3087;48.392;10.836;2023-06-19T11:28:14;33.20;69.10
6114;DHT22;3087;48.392;10.836;2023-06-19T11:30:41;33.40;68.10
6114;DHT22;3087;48.392;10.836;2023-06-19T11:33:22;33.80;68.70
6114;DHT22;3087;48.392;10.836;2023-06-19T11:35:49;34.00;68.30
6114;DHT22;3087;48.392;10.836;2023-06-19T11:38:23;34.10;68.40
6114;DHT22;3087;48.392;10.836;2023-06-19T11:40:53;33.80;69.10
6114;DHT22;3087;48.392;10.836;2023-06-19T11:43:32;33.30;70.00
6114;DHT22;3087;48.392;10.836;2023-06-19T11:46:04;33.50;69.60
6114;DHT22;3087;48.392;10.836;2023-06-19T11:48:36;34.30;69.30
6114;DHT22;3087;48.392;10.836;2023-06-19T11:51:02;35.00;67.20
6114;DHT22;3087;48.392;10.836;2023-06-19T11:53:28;35.40;66.30
6114;DHT22;3087;48.392;10.836;2023-06-19T11:55:55;35.90;66.90
6114;DHT22;3087;48.392;10.836;2023-06-19T11:58:20;35.70;64.50
6114;DHT22;3087;48.392;10.836;2023-06-19T12:00:47;35.70;64.10
6114;DHT22;3087;48.392;10.836;2023-06-19T12:03:13;35.20;63.50
6114;DHT22;3087;48.392;10.836;2023-06-19T12:05:39;35.60;63.60
6114;DHT22;3087;48.392;10.836;2023-06-19T12:08:05;35.50;63.50
6114;DHT22;3087;48.392;10.836;2023-06-19T12:10:33;36.10;63.70
6114;DHT22;3087;48.392;10.836;2023-06-19T12:13:02;35.40;63.90
6114;DHT22;3087;48.392;10.836;2023-06-19T12:15:28;35.20;64.10
6114;DHT22;3087;48.392;10.836;2023-06-19T12:17:53;35.70;63.90
6114;DHT22;3087;48.392;10.836;2023-06-19T12:20:19;35.70;63.80
6114;DHT22;3087;48.392;10.836;2023-06-19T12:22:45;36.10;62.70
6114;DHT22;3087;48.392;10.836;2023-06-19T12:25:11;36.10;62.40
6114;DHT22;3087;48.392;10.836;2023-06-19T12:27:39;36.10;61.70
6114;DHT22;3087;48.392;10.836;2023-06-19T12:30:05;36.10;61.50
6114;DHT22;3087;48.392;10.836;2023-06-19T12:32:31;36.40;61.20
6114;DHT22;3087;48.392;10.836;2023-06-19T12:35:04;36.60;61.60
6114;DHT22;3087;48.392;10.836;2023-06-19T12:37:38;37.00;60.40
6114;DHT22;3087;48.392;10.836;2023-06-19T12:40:04;37.20;60.20
6114;DHT22;3087;48.392;10.836;2023-06-19T12:42:35;37.40;61.70
6114;DHT22;3087;48.392;10.836;2023-06-19T12:45:01;37.90;60.50
6114;DHT22;3087;48.392;10.836;2023-06-19T12:47:27;38.00;59.40
6114;DHT22;3087;48.392;10.836;2023-06-19T12:49:52;38.40;59.50
6114;DHT22;3087;48.392;10.836;2023-06-19T12:52:21;37.90;57.30
6114;DHT22;3087;48.392;10.836;2023-06-19T12:54:47;38.60;58.60
6114;DHT22;3087;48.392;10.836;2023-06-19T12:57:13;38.30;57.70
6114;DHT22;3087;48.392;10.836;2023-06-19T12:59:39;38.20;57.30
6114;DHT22;3087;48.392;10.836;2023-06-19T13:02:05;38.00;57.40
6114;DHT22;3087;48.392;10.836;2023-06-19T13:04:31;36.90;57.20
6114;DHT22;3087;48.392;10.836;2023-06-19T13:06:57;37.30;58.20
6114;DHT22;3087;48.392;10.836;2023-06-19T13:09:23;37.40;58.20
6114;DHT22;3087;48.392;10.836;2023-06-19T13:11:49;37.20;58.10
6114;DHT22;3087;48.392;10.836;2023-06-19T13:14:15;37.40;57.60
6114;DHT22;3087;48.392;10.836;2023-06-19T13:16:41;38.40;57.60
6114;DHT22;3087;48.392;10.836;2023-06-19T13:19:07;38.50;58.30
6114;DHT22;3087;48.392;10.836;2023-06-19T13:21:32;38.70;57.40
6114;DHT22;3087;48.392;10.836;2023-06-19T13:23:58;38.60;57.10
6114;DHT22;3087;48.392;10.836;2023-06-19T13:26:24;38.80;57.20
6114;DHT22;3087;48.392;10.836;2023-06-19T13:28:49;39.10;56.90
6114;DHT22;3087;48.392;10.836;2023-06-19T13:31:15;39.20;56.30
6114;DHT22;3087;48.392;10.836;2023-06-19T13:33:41;39.90;57.30
6114;DHT22;3087;48.392;10.836;2023-06-19T13:36:06;40.40;55.90
6114;DHT22;3087;48.392;10.836;2023-06-19T13:38:32;40.40;55.70
6114;DHT22;3087;48.392;10.836;2023-06-19T13:40:57;39.90;55.90
6114;DHT22;3087;48.392;10.836;2023-06-19T13:43:23;39.20;56.50
6114;DHT22;3087;48.392;10.836;2023-06-19T13:45:49;38.90;56.80
6114;DHT22;3087;48.392;10.836;2023-06-19T13:48:15;38.70;57.00
6114;DHT22;3087;48.392;10.836;2023-06-19T13:50:41;38.80;56.20
6114;DHT22;3087;48.392;10.836;2023-06-19T13:53:06;38.60;56.50
6114;DHT22;3087;48.392;10.836;2023-06-19T13:55:32;38.40;56.80
6114;DHT22;3087;48.392;10.836;2023-06-19T13:57:57;38.20;56.30
6114;DHT22;3087;48.392;10.836;2023-06-19T14:00:23;37.40;56.80
6114;DHT22;3087;48.392;10.836;2023-06-19T14:02:49;37.60;57.60
6114;DHT22;3087;48.392;10.836;2023-06-19T14:05:15;37.90;57.40
6114;DHT22;3087;48.392;10.836;2023-06-19T14:07:44;38.60;57.00
6114;DHT22;3087;48.392;10.836;2023-06-19T14:10:10;38.90;56.30
6114;DHT22;3087;48.392;10.836;2023-06-19T14:12:36;38.90;56.30
6114;DHT22;3087;48.392;10.836;2023-06-19T14:15:02;39.70;57.00
6114;DHT22;3087;48.392;10.836;2023-06-19T14:17:30;39.50;56.80
6114;DHT22;3087;48.392;10.836;2023-06-19T14:19:55;38.90;55.70
6114;DHT22;3087;48.392;10.836;2023-06-19T14:22:26;38.30;56.60
6114;DHT22;3087;48.392;10.836;2023-06-19T14:24:51;37.90;56.50
6114;DHT22;3087;48.392;10.836;2023-06-19T14:27:25;38.10;57.00
6114;DHT22;3087;48.392;10.836;2023-06-19T14:29:51;38.00;57.10
6114;DHT22;3087;48.392;10.836;2023-06-19T14:32:19;38.60;57.10
6114;DHT22;3087;48.392;10.836;2023-06-19T14:34:44;39.20;56.20
6114;DHT22;3087;48.392;10.836;2023-06-19T14:37:13;39.60;55.90
6114;DHT22;3087;48.392;10.836;2023-06-19T14:39:39;39.40;55.30
6114;DHT22;3087;48.392;10.836;2023-06-19T14:42:07;38.80;55.10
6114;DHT22;3087;48.392;10.836;2023-06-19T14:44:33;38.10;55.70
6114;DHT22;3087;48.392;10.836;2023-06-19T14:47:02;38.10;55.80
6114;DHT22;3087;48.392;10.836;2023-06-19T14:49:32;37.90;55.70
6114;DHT22;3087;48.392;10.836;2023-06-19T14:51:57;37.60;55.70
6114;DHT22;3087;48.392;10.836;2023-06-19T14:54:26;38.10;56.10
6114;DHT22;3087;48.392;10.836;2023-06-19T14:56:52;38.60;56.20
6114;DHT22;3087;48.392;10.836;2023-06-19T14:59:18;36.40;53.50
6114;DHT22;3087;48.392;10.836;2023-06-19T15:01:45;38.10;55.50
6114;DHT22;3087;48.392;10.836;2023-06-19T15:11:49;35.70;59.00
6114;DHT22;3087;48.392;10.836;2023-06-19T15:14:15;35.30;59.70
6114;DHT22;3087;48.392;10.836;2023-06-19T15:16:42;35.60;59.70
6114;DHT22;3087;48.392;10.836;2023-06-19T15:19:08;35.80;59.60
6114;DHT22;3087;48.392;10.836;2023-06-19T15:21:33;36.00;59.10
6114;DHT22;3087;48.392;10.836;2023-06-19T15:23:59;36.00;59.00
6114;DHT22;3087;48.392;10.836;2023-06-19T15:26:24;36.00;59.30
6114;DHT22;3087;48.392;10.836;2023-06-19T15:28:51;35.80;59.30
6114;DHT22;3087;48.392;10.836;2023-06-19T15:31:20;36.00;58.60
6114;DHT22;3087;48.392;10.836;2023-06-19T15:33:46;36.30;58.40
6114;DHT22;3087;48.392;10.836;2023-06-19T15:36:12;36.40;58.30
6114;DHT22;3087;48.392;10.836;2023-06-19T15:38:38;36.30;58.30
6114;DHT22;3087;48.392;10.836;2023-06-19T15:41:04;36.20;58.70
6114;DHT22;3087;48.392;10.836;2023-06-19T15:43:29;36.00;58.90
6114;DHT22;3087;48.392;10.836;2023-06-19T15:45:56;35.60;58.70
6114;DHT22;3087;48.392;10.836;2023-06-19T15:48:22;35.50;59.10
6114;DHT22;3087;48.392;10.836;2023-06-19T15:50:48;35.30;58.80
6114;DHT22;3087;48.392;10.836;2023-06-19T15:53:14;35.40;58.50
6114;DHT22;3087;48.392;10.836;2023-06-19T15:55:39;36.00;59.00
6114;DHT22;3087;48.392;10.836;2023-06-19T15:58:07;36.40;57.80
6114;DHT22;3087;48.392;10.836;2023-06-19T16:00:33;37.00;57.70